Time;durP1;ratioP1;P1;durP2;ratioP2;P2;SDS_P1;SDS_P2;PMS_P1;PMS_P2;Temp;Humidity;BMP_temperature;BMP_pressure;BME280_temperature;BME280_humidity;BME280_pressure;Samples;Min_cycle;Max_cycle;Signal;HPM_P1;HPM_P2
2023/05/20 00:02:01;;;;;;;;;13.50;13.00;;;;;16.80;48.21;101570.50;5013832;28;45932;-67
2023/05/20 00:04:26;;;;;;;;;25.25;16.25;;;;;16.82;48.22;101569.63;5014350;28;45358;-68
2023/05/20 00:06:52;;;;;;;;;19.25;14.25;;;;;16.82;47.95;101569.63;5013412;28;45189;-68
2023/05/20 00:09:17;;;;;;;;;18.50;14.00;;;;;16.77;48.10;101566.84;5014121;28;45280;-68
2023/05/20 00:11:42;;;;;;;;;13.50;12.00;;;;;16.76;47.87;101561.44;5005786;28;45895;-67
2023/05/20 00:14:08;;;;;;;;;17.75;14.25;;;;;16.75;48.13;101565.03;5013365;28;45080;-68
2023/05/20 00:16:33;;;;;;;;;15.75;14.25;;;;;16.81;48.14;101580.41;5012847;28;45009;-69
2023/05/20 00:18:58;;;;;;;;;18.00;14.00;;;;;16.77;48.04;101572.25;5014354;28;45302;-68
2023/05/20 00:21:24;;;;;;;;;13.25;10.75;;;;;16.76;48.38;101578.56;5012521;28;45776;-69
2023/05/20 00:23:50;;;;;;;;;15.75;13.75;;;;;16.74;47.72;101565.91;5013220;28;44987;-68
2023/05/20 00:26:15;;;;;;;;;16.25;13.75;;;;;16.79;48.24;101572.28;5009072;28;45131;-68
2023/05/20 00:28:41;;;;;;;;;16.25;14.00;;;;;16.76;48.12;101569.53;5005065;28;45174;-69
2023/05/20 00:31:06;;;;;;;;;16.00;12.50;;;;;16.82;47.58;101576.81;5014014;28;45152;-68
2023/05/20 00:33:32;;;;;;;;;16.25;13.00;;;;;16.85;47.60;101582.31;5013466;28;44942;-67
2023/05/20 00:35:57;;;;;;;;;16.75;11.75;;;;;16.43;48.21;101516.91;4991341;28;45113;-67
2023/05/20 00:38:22;;;;;;;;;14.50;11.75;;;;;16.73;48.12;101581.19;5004409;28;45074;-67
2023/05/20 00:40:48;;;;;;;;;11.25;11.25;;;;;16.72;48.33;101573.97;5016105;28;45138;-67
2023/05/20 00:43:13;;;;;;;;;16.50;13.25;;;;;16.70;47.83;101573.06;5022611;28;56017;-67
2023/05/20 00:45:39;;;;;;;;;13.25;11.00;;;;;16.67;47.98;101566.72;5004720;28;45193;-68
2023/05/20 00:48:05;;;;;;;;;14.25;11.00;;;;;16.65;48.35;101564.00;5013705;28;44948;-67
2023/05/20 00:50:31;;;;;;;;;21.50;16.00;;;;;16.64;48.55;101569.38;5012887;28;45476;-68
2023/05/20 00:52:57;;;;;;;;;20.75;14.00;;;;;16.61;48.35;101556.72;5013203;28;45164;-68
2023/05/20 00:55:23;;;;;;;;;13.25;11.00;;;;;16.56;48.26;101553.06;5011895;28;45284;-68
2023/05/20 00:57:49;;;;;;;;;13.25;10.75;;;;;16.53;48.05;101543.16;5012675;28;44963;-68
2023/05/20 01:00:15;;;;;;;;;16.50;13.25;;;;;16.59;48.26;101556.69;5010871;28;45320;-68
2023/05/20 01:02:40;;;;;;;;;16.50;15.25;;;;;16.59;48.20;101547.72;4999534;28;45129;-70
2023/05/20 01:05:06;;;;;;;;;14.00;14.00;;;;;16.58;48.29;101549.50;5011333;28;45003;-68
2023/05/20 01:07:32;;;;;;;;;19.25;12.50;;;;;16.55;48.60;101537.78;5013173;28;45081;-68
2023/05/20 01:09:58;;;;;;;;;11.50;11.50;;;;;16.50;48.25;101547.56;5010959;28;45700;-67
2023/05/20 01:12:33;;;;;;;;;20.00;14.00;;;;;16.45;48.53;101530.41;5007200;28;45083;-67
2023/05/20 01:15:14;;;;;;;;;21.25;15.00;;;;;16.42;48.49;101528.59;5011070;28;45076;-66
2023/05/20 01:17:46;;;;;;;;;15.50;14.00;;;;;16.34;48.93;101530.25;5011926;28;44993;-66
2023/05/20 01:20:13;;;;;;;;;21.00;13.00;;;;;16.37;48.69;101539.31;5003775;28;45235;-68
2023/05/20 01:22:51;;;;;;;;;13.00;12.00;;;;;15.87;49.32;101463.03;4994646;28;45101;-67
2023/05/20 01:25:17;;;;;;;;;16.00;13.50;;;;;16.16;48.87;101522.78;4987430;28;45191;-68
2023/05/20 01:27:43;;;;;;;;;16.00;12.25;;;;;16.23;49.36;101535.47;4990026;28;45368;-68
2023/05/20 01:30:10;;;;;;;;;14.50;12.50;;;;;16.21;49.53;101540.84;4988038;28;46621;-68
2023/05/20 01:32:41;;;;;;;;;14.00;11.00;;;;;16.18;49.34;101534.50;4987475;28;45219;-68
2023/05/20 01:35:08;;;;;;;;;13.00;13.00;;;;;16.18;49.53;101534.50;4993029;28;44953;-66
2023/05/20 01:37:37;;;;;;;;;15.25;13.75;;;;;16.18;49.67;101540.78;4988651;28;45325;-67
2023/05/20 01:40:04;;;;;;;;;16.00;12.25;;;;;16.16;49.66;101539.88;4992395;28;45031;-67
2023/05/20 01:42:29;;;;;;;;;15.50;14.00;;;;;16.11;49.46;101535.28;4992367;28;45066;-67
2023/05/20 01:44:55;;;;;;;;;13.75;9.75;;;;;16.07;49.36;101525.34;4992938;28;44950;-67
2023/05/20 01:47:20;;;;;;;;;14.75;11.25;;;;;16.07;49.52;101526.25;4991140;28;45078;-68
2023/05/20 01:49:46;;;;;;;;;13.00;13.00;;;;;15.98;49.58;101508.13;4988095;28;47686;-66
2023/05/20 01:52:12;;;;;;;;;15.50;12.50;;;;;16.05;50.00;101525.31;4990595;28;45065;-68
2023/05/20 01:54:37;;;;;;;;;20.25;14.25;;;;;16.02;49.69;101515.41;4991101;28;45315;-68
2023/05/20 01:57:03;;;;;;;;;11.75;11.00;;;;;16.04;49.83;101520.81;4993361;28;44880;-69
2023/05/20 01:59:28;;;;;;;;;17.25;11.50;;;;;16.01;49.69;101512.69;4991327;28;45155;-68
2023/05/20 02:01:54;;;;;;;;;12.00;12.00;;;;;16.02;49.71;101518.09;4990140;28;45218;-67
2023/05/20 02:04:21;;;;;;;;;17.00;13.00;;;;;15.98;50.21;101510.81;4992299;28;45095;-69
2023/05/20 02:06:46;;;;;;;;;14.75;13.75;;;;;15.98;49.99;101508.13;4989685;28;45209;-68
2023/05/20 02:09:12;;;;;;;;;16.75;12.50;;;;;15.91;50.10;101499.94;4987431;28;45105;-68
2023/05/20 02:11:37;;;;;;;;;16.50;14.50;;;;;15.95;50.36;101515.25;4989985;28;45026;-68
2023/05/20 02:14:02;;;;;;;;;18.25;12.75;;;;;15.92;50.35;101505.34;5002581;28;58416;-66
2023/05/20 02:16:27;;;;;;;;;14.25;13.25;;;;;15.97;49.87;101510.78;4993833;28;50662;-68
2023/05/20 02:18:53;;;;;;;;;13.75;12.00;;;;;15.95;50.07;101500.00;4992561;28;45648;-67
2023/05/20 02:21:18;;;;;;;;;13.25;11.25;;;;;15.83;50.09;101479.13;4991206;28;45669;-67
2023/05/20 02:23:44;;;;;;;;;16.50;14.00;;;;;15.93;50.36;101506.25;4990891;28;45209;-68
2023/05/20 02:26:09;;;;;;;;;14.50;13.25;;;;;15.81;50.70;101488.09;5006507;28;45247;-67
2023/05/20 02:28:37;;;;;;;;;26.75;15.25;;;;;15.88;50.82;101499.88;5010659;28;46257;-69
2023/05/20 02:31:02;;;;;;;;;16.75;16.00;;;;;15.80;50.59;101491.66;5009896;28;44971;-70
2023/05/20 02:33:27;;;;;;;;;18.25;13.50;;;;;15.90;50.89;101504.41;5010224;28;55634;-67
2023/05/20 02:35:53;;;;;;;;;18.25;11.50;;;;;15.92;50.72;101509.81;5010033;28;45182;-67
2023/05/20 02:38:18;;;;;;;;;19.50;13.75;;;;;15.88;50.83;101502.56;5009504;28;45713;-68
2023/05/20 02:40:43;;;;;;;;;17.25;14.00;;;;;15.74;50.90;101480.72;5009951;28;60982;-66
2023/05/20 02:43:09;;;;;;;;;12.50;11.75;;;;;15.85;50.88;101498.03;5004904;28;45123;-68
2023/05/20 02:45:34;;;;;;;;;14.25;11.50;;;;;15.87;51.09;101507.03;5008935;28;45156;-68
2023/05/20 02:48:00;;;;;;;;;20.75;15.75;;;;;15.82;51.00;101481.81;4993931;28;46084;-68
2023/05/20 02:50:26;;;;;;;;;15.00;13.75;;;;;15.86;51.05;101491.78;5012257;28;45080;-68
2023/05/20 02:52:51;;;;;;;;;22.00;14.50;;;;;15.81;50.84;101477.31;4990812;28;45113;-69
2023/05/20 02:55:16;;;;;;;;;15.75;14.50;;;;;15.86;50.87;101486.38;5008412;28;44840;-68
2023/05/20 02:57:42;;;;;;;;;20.00;15.50;;;;;15.90;51.20;101498.13;4991774;28;47606;-68
2023/05/20 03:00:12;;;;;;;;;17.25;16.50;;;;;15.92;51.02;101497.28;5008261;28;56888;-65
2023/05/20 03:02:38;;;;;;;;;18.50;14.50;;;;;15.84;51.06;101478.28;5014595;28;45090;-66
2023/05/20 03:05:04;;;;;;;;;21.75;15.00;;;;;15.94;50.77;101490.09;5015429;28;44928;-67
2023/05/20 03:07:30;;;;;;;;;15.75;12.75;;;;;15.92;50.83;101488.25;5013143;28;46571;-67
2023/05/20 03:09:57;;;;;;;;;25.25;16.50;;;;;15.84;51.24;101482.75;5014471;28;45124;-68
2023/05/20 03:12:25;;;;;;;;;23.00;20.00;;;;;15.78;51.36;101477.25;5014029;28;45150;-68
2023/05/20 03:14:54;;;;;;;;;22.75;16.25;;;;;15.82;51.35;101479.09;5011090;28;45337;-68
2023/05/20 03:17:19;;;;;;;;;16.25;14.75;;;;;15.78;51.76;101472.78;5004130;28;45694;-67
2023/05/20 03:19:45;;;;;;;;;19.75;14.50;;;;;15.82;51.68;101471.97;5010350;28;45156;-68
2023/05/20 03:22:10;;;;;;;;;16.00;14.75;;;;;15.77;51.86;101480.81;5014197;28;44965;-66
2023/05/20 03:24:35;;;;;;;;;20.75;17.25;;;;;15.80;51.71;101483.56;5015115;28;45066;-66
2023/05/20 03:27:01;;;;;;;;;18.25;16.50;;;;;15.81;51.46;101485.41;5014938;28;45737;-67
2023/05/20 03:29:26;;;;;;;;;20.00;15.75;;;;;15.78;51.57;101471.88;5013999;28;45094;-68
2023/05/20 03:31:51;;;;;;;;;19.50;14.25;;;;;15.84;51.97;101480.06;5014443;28;46968;-68
2023/05/20 03:34:17;;;;;;;;;20.50;16.75;;;;;15.86;51.43;101470.22;5010474;28;45080;-68
2023/05/20 03:36:42;;;;;;;;;16.25;13.75;;;;;15.87;51.40;101472.00;5008357;28;45118;-68
2023/05/20 03:39:08;;;;;;;;;13.25;12.75;;;;;15.83;51.86;101468.38;5011622;28;45407;-68
2023/05/20 03:41:34;;;;;;;;;20.25;15.50;;;;;15.79;51.88;101462.94;5012696;28;45245;-68
2023/05/20 03:43:59;;;;;;;;;15.50;14.75;;;;;15.78;51.83;101467.38;5012636;28;45109;-67
2023/05/20 03:46:24;;;;;;;;;16.75;16.00;;;;;15.79;51.71;101463.81;5011516;28;45146;-68
2023/05/20 03:48:50;;;;;;;;;19.75;16.75;;;;;15.77;51.93;101460.19;5011849;28;45192;-67
2023/05/20 03:51:15;;;;;;;;;19.50;16.25;;;;;15.77;51.72;101457.50;5009018;28;45093;-68
2023/05/20 03:53:40;;;;;;;;;17.50;17.00;;;;;15.77;51.38;101468.28;5014176;28;45460;-66
2023/05/20 03:56:06;;;;;;;;;22.25;20.00;;;;;15.75;51.73;101461.91;5014273;28;45873;-66
2023/05/20 03:58:31;;;;;;;;;20.25;16.25;;;;;15.70;52.03;101455.53;5009216;28;45093;-67
2023/05/20 04:00:57;;;;;;;;;16.00;13.50;;;;;15.74;52.19;101459.19;5010272;28;44988;-67
2023/05/20 04:03:22;;;;;;;;;24.50;16.75;;;;;15.76;51.89;101454.78;5013912;28;45142;-67
2023/05/20 04:05:48;;;;;;;;;21.00;18.25;;;;;15.78;52.20;101463.78;5012937;28;45845;-67
2023/05/20 04:08:13;;;;;;;;;20.25;15.50;;;;;15.70;52.11;101447.47;5006189;28;45451;-68
2023/05/20 04:10:42;;;;;;;;;24.25;17.75;;;;;15.63;52.09;101441.06;4996013;28;45407;-67
2023/05/20 04:13:08;;;;;;;;;23.25;18.00;;;;;15.69;52.04;101459.13;5014193;28;45188;-67
2023/05/20 04:15:37;;;;;;;;;22.50;18.00;;;;;15.71;52.06;101470.84;5013021;28;45799;-67
2023/05/20 04:18:04;;;;;;;;;19.75;17.25;;;;;15.71;51.95;101460.06;5012547;28;45384;-68
2023/05/20 04:20:30;;;;;;;;;19.75;15.75;;;;;15.71;52.07;101459.16;5012623;28;45379;-66
2023/05/20 04:22:55;;;;;;;;;18.00;15.00;;;;;15.74;51.86;101462.81;5013076;28;45124;-68
2023/05/20 04:25:21;;;;;;;;;19.75;17.50;;;;;15.74;51.70;101454.72;5006539;28;46081;-68
2023/05/20 04:27:48;;;;;;;;;21.50;18.75;;;;;15.73;52.17;101452.00;5013989;28;45014;-68
2023/05/20 04:30:16;;;;;;;;;22.75;17.00;;;;;15.82;51.99;101460.25;5013382;28;45151;-66
2023/05/20 04:32:41;;;;;;;;;18.75;16.00;;;;;15.79;51.71;101457.53;5013205;28;45170;-66
2023/05/20 04:35:10;;;;;;;;;20.50;18.25;;;;;15.78;51.77;101461.09;5011477;28;49558;-67
2023/05/20 04:37:36;;;;;;;;;25.25;18.00;;;;;15.81;51.81;101464.75;5011539;28;44971;-66
2023/05/20 04:40:02;;;;;;;;;24.75;20.00;;;;;15.77;51.65;101459.28;5012480;28;45085;-66
2023/05/20 04:42:28;;;;;;;;;20.25;19.50;;;;;15.72;52.01;101453.78;5004022;28;45251;-66
2023/05/20 04:44:54;;;;;;;;;21.00;18.25;;;;;15.74;51.76;101465.50;4997377;28;45376;-66
2023/05/20 04:47:19;;;;;;;;;24.75;23.25;;;;;15.74;51.89;101461.88;4997072;28;45269;-66
2023/05/20 04:49:44;;;;;;;;;20.25;18.25;;;;;15.75;52.17;101461.91;5004242;28;45507;-67
2023/05/20 04:52:10;;;;;;;;;20.50;16.00;;;;;15.76;51.80;101458.38;5010970;28;45393;-66
2023/05/20 04:54:35;;;;;;;;;22.75;21.00;;;;;15.78;52.07;101455.72;5008905;28;45314;-68
2023/05/20 04:57:01;;;;;;;;;23.00;19.50;;;;;15.75;52.16;101461.91;4999005;28;50362;-66
2023/05/20 04:59:27;;;;;;;;;21.50;17.50;;;;;15.65;52.10;101450.06;4983967;28;45629;-66
2023/05/20 05:01:52;;;;;;;;;18.25;16.75;;;;;15.68;52.35;101459.09;4975087;28;45683;-68
2023/05/20 05:04:17;;;;;;;;;21.75;17.50;;;;;15.71;52.05;101467.25;4975529;28;46020;-66
2023/05/20 05:06:43;;;;;;;;;18.00;17.50;;;;;15.72;52.40;101458.25;4999103;28;45570;-67
2023/05/20 05:09:08;;;;;;;;;19.50;19.50;;;;;15.74;52.32;101453.78;4998096;28;45262;-68
2023/05/20 05:11:34;;;;;;;;;23.75;19.75;;;;;15.69;52.26;101456.44;5000120;28;45282;-67
2023/05/20 05:13:59;;;;;;;;;27.75;21.50;;;;;15.70;52.49;101451.94;5008416;28;46766;-68
2023/05/20 05:16:24;;;;;;;;;26.25;21.50;;;;;15.73;52.46;101452.91;5001090;28;45335;-67
2023/05/20 05:18:50;;;;;;;;;30.25;23.75;;;;;15.71;52.53;101445.69;4995168;28;45416;-66
2023/05/20 05:21:16;;;;;;;;;22.25;19.50;;;;;15.63;52.26;101438.38;4987633;28;47487;-65
2023/05/20 05:23:41;;;;;;;;;27.75;22.25;;;;;15.70;52.71;101451.94;4985747;28;46143;-67
2023/05/20 05:26:07;;;;;;;;;21.00;19.00;;;;;15.70;52.45;101442.06;4995166;28;45639;-66
2023/05/20 05:28:32;;;;;;;;;23.25;20.25;;;;;15.58;52.63;101421.22;4977958;28;45489;-65
2023/05/20 05:30:58;;;;;;;;;20.75;18.75;;;;;15.81;52.24;101445.88;5003805;28;45343;-66
2023/05/20 05:33:23;;;;;;;;;22.00;21.00;;;;;15.82;52.33;101458.47;4997993;28;45644;-66
2023/05/20 05:35:49;;;;;;;;;26.00;22.25;;;;;15.84;52.77;101453.13;4999782;28;45510;-65
2023/05/20 05:38:14;;;;;;;;;27.25;22.25;;;;;15.80;52.77;101451.25;5009661;28;45096;-68
2023/05/20 05:40:40;;;;;;;;;32.50;25.00;;;;;15.81;52.74;101445.88;5007789;28;45334;-65
2023/05/20 05:43:05;;;;;;;;;21.75;19.50;;;;;15.87;52.54;101453.16;5009998;28;45364;-66
2023/05/20 05:45:31;;;;;;;;;34.75;25.50;;;;;15.89;52.61;101458.56;5002676;28;44991;-66
2023/05/20 05:47:56;;;;;;;;;19.25;18.50;;;;;15.84;52.57;101442.34;4994561;28;45423;-68
2023/05/20 05:50:22;;;;;;;;;25.75;21.25;;;;;15.87;52.13;101446.84;4993409;28;45401;-66
2023/05/20 05:52:47;;;;;;;;;20.75;19.00;;;;;15.85;52.79;101446.84;5006718;28;46983;-67
2023/05/20 05:55:12;;;;;;;;;23.75;20.25;;;;;15.89;52.52;101454.09;4996861;28;45512;-67
2023/05/20 05:57:38;;;;;;;;;24.75;22.25;;;;;15.89;52.64;101447.78;4994489;28;44874;-67
2023/05/20 06:00:04;;;;;;;;;28.75;20.50;;;;;15.89;52.62;101448.72;4999004;28;45388;-67
2023/05/20 06:02:34;;;;;;;;;21.75;20.75;;;;;15.92;51.99;101437.06;5011901;28;46403;-67
2023/05/20 06:05:01;;;;;;;;;26.50;22.50;;;;;15.92;52.36;101435.28;5009419;28;45502;-68
2023/05/20 06:07:26;;;;;;;;;24.50;20.00;;;;;15.95;52.03;101435.31;5007273;28;45427;-67
2023/05/20 06:09:51;;;;;;;;;21.25;20.00;;;;;15.99;52.12;101436.28;4995162;28;45850;-66
2023/05/20 06:12:17;;;;;;;;;28.50;20.25;;;;;15.98;52.40;101424.56;4994195;28;53350;-67
2023/05/20 06:14:42;;;;;;;;;22.75;20.00;;;;;16.02;52.47;101437.22;4997146;28;45359;-66
2023/05/20 06:17:07;;;;;;;;;22.75;21.00;;;;;16.06;52.27;101430.09;5006190;28;52362;-67
2023/05/20 06:19:33;;;;;;;;;33.25;25.50;;;;;16.06;52.17;101419.31;5012175;28;45206;-67
2023/05/20 06:21:58;;;;;;;;;19.25;18.00;;;;;16.11;52.20;101430.16;5004166;28;45474;-68
2023/05/20 06:24:23;;;;;;;;;19.25;19.00;;;;;16.16;52.15;101434.72;4988646;28;47001;-68
2023/05/20 06:26:49;;;;;;;;;39.50;29.75;;;;;16.06;51.73;101418.41;5001698;28;45642;-67
2023/05/20 06:29:15;;;;;;;;;33.25;24.25;;;;;16.12;51.53;101435.59;4997452;28;45039;-66
2023/05/20 06:31:40;;;;;;;;;23.75;21.00;;;;;16.18;51.98;101437.44;5004832;28;45611;-68
2023/05/20 06:34:05;;;;;;;;;30.75;26.00;;;;;16.22;52.05;101433.94;5007568;28;54913;-66
2023/05/20 06:36:31;;;;;;;;;13.50;13.25;;;;;16.13;51.91;101412.22;5010981;28;45054;-67
2023/05/20 06:38:56;;;;;;;;;24.50;20.25;;;;;16.28;51.67;101416.91;4969480;28;45612;-66
2023/05/20 06:41:22;;;;;;;;;28.50;22.50;;;;;16.35;51.52;101418.78;4987392;28;45766;-67
2023/05/20 06:43:47;;;;;;;;;23.00;20.00;;;;;16.37;51.68;101409.84;5002696;28;45277;-67
2023/05/20 06:46:13;;;;;;;;;22.50;20.75;;;;;16.42;51.08;101406.34;5004828;28;45821;-66
2023/05/20 06:48:38;;;;;;;;;22.00;20.50;;;;;16.42;51.58;101404.53;5006489;28;45014;-67
2023/05/20 06:51:08;;;;;;;;;40.00;34.25;;;;;16.49;51.48;101414.50;5004541;28;45443;-66
2023/05/20 06:53:33;;;;;;;;;38.50;31.75;;;;;16.53;51.04;101401.94;4995832;28;45498;-67
2023/05/20 06:55:59;;;;;;;;;36.75;30.25;;;;;16.60;51.04;101411.94;4992174;28;45557;-67
2023/05/20 06:58:24;;;;;;;;;25.25;21.75;;;;;16.60;51.06;101395.75;5003986;28;45264;-68
2023/05/20 07:00:50;;;;;;;;;38.75;31.00;;;;;16.72;50.80;101409.38;5005611;28;47219;-68
2023/05/20 07:03:15;;;;;;;;;33.00;29.75;;;;;16.75;50.56;101403.13;4992542;28;45440;-67
2023/05/20 07:05:41;;;;;;;;;21.75;20.25;;;;;16.87;50.77;101410.50;5004822;28;45260;-66
2023/05/20 07:08:07;;;;;;;;;25.50;20.50;;;;;16.91;50.51;101404.22;5006182;28;45285;-67
2023/05/20 07:10:33;;;;;;;;;26.50;21.75;;;;;16.98;49.89;101415.97;5004254;28;46409;-66
2023/05/20 07:12:58;;;;;;;;;28.75;23.50;;;;;17.00;49.84;101409.72;5005487;28;46270;-65
2023/05/20 07:15:24;;;;;;;;;21.25;18.75;;;;;17.07;49.84;101408.88;5002683;28;45904;-66
2023/05/20 07:17:49;;;;;;;;;20.25;17.50;;;;;17.10;49.55;101403.53;4997181;28;45434;-66
2023/05/20 07:20:14;;;;;;;;;21.75;19.00;;;;;17.17;49.53;101401.78;5000058;28;45681;-67
2023/05/20 07:22:40;;;;;;;;;24.75;19.75;;;;;17.16;49.42;101391.91;4989159;28;45464;-68
2023/05/20 07:25:06;;;;;;;;;27.25;22.00;;;;;17.25;49.35;101399.19;4991278;28;45702;-67
2023/05/20 07:27:31;;;;;;;;;29.25;24.25;;;;;17.30;49.53;101403.72;4980594;28;45534;-68
2023/05/20 07:29:57;;;;;;;;;22.75;16.50;;;;;17.34;49.06;101395.63;4985944;28;47149;-65
2023/05/20 07:32:22;;;;;;;;;27.25;18.00;;;;;17.36;49.24;101389.38;4990716;28;45553;-67
2023/05/20 07:34:47;;;;;;;;;18.75;16.50;;;;;17.40;49.02;101398.41;5000626;28;45786;-66
2023/05/20 07:37:13;;;;;;;;;19.00;18.50;;;;;17.39;48.56;101380.38;5003391;28;45517;-66
2023/05/20 07:39:39;;;;;;;;;25.00;23.00;;;;;17.53;48.87;101388.63;5003228;28;46244;-63
2023/05/20 07:42:04;;;;;;;;;27.75;18.50;;;;;17.55;48.38;101376.00;4989987;28;45399;-65
2023/05/20 07:44:30;;;;;;;;;20.75;18.00;;;;;17.67;47.69;101384.22;4991187;28;45560;-65
2023/05/20 07:46:55;;;;;;;;;16.75;15.50;;;;;17.71;48.07;101383.34;5000276;28;45476;-66
2023/05/20 07:49:21;;;;;;;;;27.25;25.50;;;;;17.79;47.93;101383.41;4995127;28;46414;-65
2023/05/20 07:51:46;;;;;;;;;30.50;26.00;;;;;17.84;48.20;101378.94;4995266;28;45586;-67
2023/05/20 07:54:15;;;;;;;;;42.50;37.00;;;;;17.91;47.55;101379.91;4995869;28;45752;-69
2023/05/20 07:56:40;;;;;;;;;52.50;40.50;;;;;17.92;47.53;101360.06;4983172;28;45759;-68
2023/05/20 07:59:06;;;;;;;;;18.25;16.50;;;;;18.09;47.62;101366.50;5010291;28;45710;-66
2023/05/20 08:01:33;;;;;;;;;25.25;19.25;;;;;18.15;47.04;101368.31;5009787;28;45100;-66
2023/05/20 08:03:58;;;;;;;;;21.75;17.50;;;;;18.22;46.71;101370.16;5012281;28;45164;-65
2023/05/20 08:06:24;;;;;;;;;24.00;20.00;;;;;18.33;46.68;101370.19;4999126;28;45490;-67
2023/05/20 08:08:49;;;;;;;;;20.50;18.25;;;;;18.43;46.46;101377.47;4997525;28;45287;-67
2023/05/20 08:11:15;;;;;;;;;20.50;16.50;;;;;18.41;46.49;101360.31;5002523;28;45427;-69
2023/05/20 08:13:40;;;;;;;;;24.50;21.75;;;;;18.42;46.62;101348.59;5007591;28;45390;-67
2023/05/20 08:16:06;;;;;;;;;39.75;32.50;;;;;18.62;46.11;101361.31;5000562;28;46541;-67
2023/05/20 08:18:33;;;;;;;;;17.75;17.00;;;;;18.71;45.81;101362.22;5003666;28;45501;-63
2023/05/20 08:21:00;;;;;;;;;16.75;15.75;;;;;18.83;45.57;101361.38;4990606;28;45542;-68
2023/05/20 08:23:25;;;;;;;;;21.25;17.75;;;;;18.94;45.35;101359.59;4997363;28;45527;-67
2023/05/20 08:25:50;;;;;;;;;24.25;20.25;;;;;18.99;44.89;101346.09;4992041;28;45514;-67
2023/05/20 08:28:16;;;;;;;;;24.33;17.33;;;;;19.08;44.68;101359.63;4996261;28;49626;-68
2023/05/20 08:30:41;;;;;;;;;19.67;17.67;;;;;19.07;44.87;101341.56;4996383;28;45325;-68
2023/05/20 08:33:07;;;;;;;;;23.75;22.75;;;;;19.21;44.57;101354.22;4979426;28;45571;-67
2023/05/20 08:35:32;;;;;;;;;20.33;17.00;;;;;19.23;44.59;101349.69;5008940;28;45568;-66
2023/05/20 08:37:58;;;;;;;;;8.67;6.67;;;;;19.29;44.52;101342.47;4978790;28;47172;-66
2023/05/20 08:40:25;;;;;;;;;21.00;17.00;;;;;19.37;44.16;101336.13;5001807;28;45470;-67
2023/05/20 08:42:53;;;;;;;;;19.00;17.33;;;;;19.27;44.25;101321.69;5011509;28;45066;-67
2023/05/20 08:45:22;;;;;;;;;19.25;18.00;;;;;19.42;44.01;101337.03;5013218;28;45159;-68
2023/05/20 08:47:48;;;;;;;;;22.67;17.33;;;;;19.39;43.99;101323.53;5010060;28;46368;-68
2023/05/20 08:50:15;;;;;;;;;29.00;27.00;;;;;19.45;43.44;101318.06;5004582;28;45133;-66
2023/05/20 08:52:47;;;;;;;;;14.33;13.67;;;;;19.54;43.50;101314.47;4992207;28;45588;-69
2023/05/20 08:55:45;;;;;;;;;13.00;13.00;;;;;19.63;43.13;101318.06;4996747;28;45391;-68
2023/05/20 08:58:11;;;;;;;;;16.00;13.67;;;;;19.73;43.00;101326.16;4985646;28;45466;-68
2023/05/20 09:00:37;;;;;;;;;20.25;15.25;;;;;19.82;43.09;101334.31;5004891;28;45659;-68
2023/05/20 09:03:03;;;;;;;;;19.33;15.33;;;;;19.91;43.04;101327.97;5009211;28;44950;-70
2023/05/20 09:05:28;;;;;;;;;14.00;13.00;;;;;19.97;42.95;101320.72;5006079;28;45147;-68
2023/05/20 09:08:05;;;;;;;;;15.00;12.00;;;;;20.05;42.27;101315.25;5001525;28;45177;-68
2023/05/20 09:10:32;;;;;;;;;12.00;12.00;;;;;20.21;42.13;101316.09;5003419;28;45967;-65
2023/05/20 09:13:00;;;;;;;;;16.00;13.00;;;;;20.29;41.77;101324.19;5011634;28;45294;-68
2023/05/20 09:15:25;;;;;;;;;20.75;16.75;;;;;20.36;41.44;101320.53;4997194;28;45449;-68
2023/05/20 09:17:50;;;;;;;;;21.00;14.00;;;;;20.37;41.36;101312.38;4978155;28;46736;-67
2023/05/20 09:20:16;;;;;;;;;19.50;14.00;;;;;20.41;41.17;101305.16;4994710;28;45492;-68
2023/05/20 09:22:41;;;;;;;;;13.33;11.67;;;;;20.55;40.76;101311.38;4991160;28;45488;-67
2023/05/20 09:25:11;;;;;;;;;13.67;13.00;;;;;20.65;40.69;101303.22;4990192;28;45624;-66
2023/05/20 09:27:36;;;;;;;;;15.67;14.33;;;;;20.76;40.29;101306.78;4981627;28;48004;-65
2023/05/20 09:30:06;;;;;;;;;12.00;10.67;;;;;20.81;40.40;101302.22;4994925;28;45436;-66
2023/05/20 09:32:31;;;;;;;;;16.00;16.00;;;;;20.84;40.04;101283.19;4987405;28;45468;-64
2023/05/20 09:34:57;;;;;;;;;14.67;14.33;;;;;20.84;40.40;101291.34;4975968;28;45439;-66
2023/05/20 09:37:25;;;;;;;;;15.33;14.67;;;;;20.87;40.16;101277.75;4995192;28;45375;-67
2023/05/20 09:39:50;;;;;;;;;14.33;12.33;;;;;20.99;40.26;101287.59;4996507;28;45554;-66
2023/05/20 09:42:25;;;;;;;;;15.00;12.00;;;;;21.06;39.71;101288.44;4976414;28;45699;-65
2023/05/20 09:44:53;;;;;;;;;20.00;17.33;;;;;21.11;39.36;101289.31;4992829;28;45530;-67
2023/05/20 09:47:18;;;;;;;;;17.33;16.00;;;;;21.10;39.18;101282.97;4995608;28;46287;-68
2023/05/20 09:49:46;;;;;;;;;13.67;12.33;;;;;21.14;39.34;101283.84;4993721;28;45132;-66
2023/05/20 09:52:12;;;;;;;;;21.33;16.00;;;;;21.22;39.11;101273.81;4992984;28;45502;-66
2023/05/20 09:54:38;;;;;;;;;12.33;12.33;;;;;21.24;39.18;101262.94;4987552;28;45515;-67
2023/05/20 09:57:05;;;;;;;;;14.33;13.67;;;;;21.33;38.82;101268.25;5011550;28;46167;-67
2023/05/20 09:59:32;;;;;;;;;20.00;15.33;;;;;21.35;38.88;101261.00;5002492;28;45388;-65
2023/05/20 10:01:57;;;;;;;;;21.33;17.33;;;;;21.36;38.75;101262.78;5001976;28;45285;-66
2023/05/20 10:04:25;;;;;;;;;14.33;12.67;;;;;21.31;39.13;101243.81;5010134;28;45053;-67
2023/05/20 10:07:12;;;;;;;;;14.00;13.00;;;;;21.38;39.00;101247.38;4999995;28;47619;-66
2023/05/20 10:10:28;;;;;;;;;13.00;12.00;;;;;21.40;38.51;101251.00;5009271;28;45390;-68
2023/05/20 10:13:50;;;;;;;;;10.67;8.00;;;;;21.43;37.99;101242.81;4967617;28;45944;-66
2023/05/20 10:16:31;;;;;;;;;11.33;7.67;;;;;21.47;38.01;101249.09;4910033;28;45100;-68
2023/05/20 10:19:08;;;;;;;;;7.33;7.33;;;;;21.47;37.57;101259.97;4999881;28;46490;-66
2023/05/20 10:21:34;;;;;;;;;8.00;6.33;;;;;21.47;37.29;101246.38;5011508;28;45109;-66
2023/05/20 10:24:07;;;;;;;;;7.33;7.00;;;;;21.52;37.19;101252.72;5011474;28;45029;-66
2023/05/20 10:26:40;;;;;;;;;8.67;8.67;;;;;21.50;37.16;101238.25;4992115;28;45186;-69
2023/05/20 10:29:19;;;;;;;;;8.00;8.00;;;;;21.58;37.25;101247.22;5010438;28;45571;-70
2023/05/20 10:31:48;;;;;;;;;8.00;8.00;;;;;21.62;37.03;101245.34;5010271;28;45334;-68
2023/05/20 10:34:16;;;;;;;;;10.00;8.33;;;;;21.67;36.94;101233.50;4996802;28;45691;-66
2023/05/20 10:37:04;;;;;;;;;8.33;7.33;;;;;21.67;36.67;101224.44;4994365;28;45372;-66
2023/05/20 10:39:34;;;;;;;;;16.33;16.00;;;;;21.75;37.01;101227.97;5008863;28;45236;-66
2023/05/20 10:42:10;;;;;;;;;12.00;9.33;;;;;21.79;36.77;101232.44;5008498;28;45022;-64
2023/05/20 10:44:46;;;;;;;;;7.67;7.67;;;;;21.81;36.72;101229.69;4988382;28;45097;-65
2023/05/20 10:47:12;;;;;;;;;7.67;7.00;;;;;21.77;36.95;101215.25;5008252;28;45020;-66
2023/05/20 10:49:48;;;;;;;;;9.33;7.00;;;;;21.88;36.72;101218.72;5000633;28;45633;-69
2023/05/20 10:52:14;;;;;;;;;6.67;6.67;;;;;21.89;36.96;101215.09;4997055;28;45443;-65
2023/05/20 10:54:59;;;;;;;;;11.00;8.00;;;;;21.85;36.39;101196.13;4996813;28;45365;-70
2023/05/20 10:57:26;;;;;;;;;9.67;8.67;;;;;22.00;36.26;101224.94;5000865;28;45577;-67
2023/05/20 10:59:52;;;;;;;;;9.67;8.00;;;;;21.94;35.98;101209.56;4995290;28;46012;-66
2023/05/20 11:02:25;;;;;;;;;7.33;5.00;;;;;22.01;35.27;101205.88;4974946;28;45906;-67
2023/05/20 11:04:51;;;;;;;;;8.00;6.67;;;;;21.95;34.82;101205.94;4994996;28;45597;-65
2023/05/20 11:07:30;;;;;;;;;8.00;8.00;;;;;22.03;34.86;101211.28;4996989;28;45425;-67
2023/05/20 11:09:57;;;;;;;;;9.00;9.00;;;;;22.02;34.78;101199.47;4993106;28;46460;-66